Time;durP1;ratioP1;P1;durP2;ratioP2;P2;SDS_P1;SDS_P2;PMS_P1;PMS_P2;Temp;Humidity;BMP_temperature;BMP_pressure;BME280_temperature;BME280_humidity;BME280_pressure;Samples;Min_cycle;Max_cycle;Signal;HPM_P1;HPM_P2
2022/09/19 00:00:15;;;;;;;;;;;;;;;;;;5030004;28;19928;-68
2022/09/19 00:02:41;;;;;;;;;;;;;;;;;;5029925;28;20349;-67
2022/09/19 00:05:08;;;;;;;;;;;;;;;;;;5029887;28;20272;-68
2022/09/19 00:07:34;;;;;;;;;;;;;;;;;;5031079;28;20012;-67
2022/09/19 00:10:00;;;;;;;;;;;;;;;;;;5030863;28;19951;-68
2022/09/19 00:12:28;;;;;;;;;;;;;;;;;;5030750;28;19906;-67
2022/09/19 00:14:57;;;;;;;;;;;;;;;;;;5030340;28;19911;-68
2022/09/19 00:17:23;;;;;;;;;;;;;;;;;;5030955;28;19909;-69
2022/09/19 00:19:51;;;;;;;;;;;;;;;;;;5029670;28;19905;-67
2022/09/19 00:22:17;;;;;;;;;;;;;;;;;;5030883;28;19915;-68
2022/09/19 00:24:48;;;;;;;;;;;;;;;;;;5029406;28;19917;-68
2022/09/19 00:27:14;;;;;;;;;;;;;;;;;;5029544;28;19909;-67
2022/09/19 00:29:42;;;;;;;;;;;;;;;;;;5029571;28;19944;-67
2022/09/19 00:32:11;;;;;;;;;;;;;;;;;;5030722;28;19909;-68
2022/09/19 00:34:37;;;;;;;;;;;;;;;;;;5030703;28;19916;-67
2022/09/19 00:37:03;;;;;;;;;;;;;;;;;;5030596;28;20352;-67
2022/09/19 00:39:30;;;;;;;;;;;;;;;;;;5030370;28;20280;-67
2022/09/19 00:41:56;;;;;;;;;;;;;;;;;;5030301;28;20323;-67
2022/09/19 00:44:22;;;;;;;;;;;;;;;;;;5029341;28;19909;-66
2022/09/19 00:46:48;;;;;;;;;;;;;;;;;;5029287;28;20412;-66
2022/09/19 00:49:14;;;;;;;;;;;;;;;;;;5029243;28;20261;-67
2022/09/19 00:51:40;;;;;;;;;;;;;;;;;;5029190;28;19954;-66
2022/09/19 00:54:07;;;;;;;;;;;;;;;;;;5030413;28;19905;-66
2022/09/19 00:56:33;;;;;;;;;;;;;;;;;;5030390;28;19916;-66
2022/09/19 00:58:58;;;;;;;;;;;;;;;;;;5030390;28;20009;-66
2022/09/19 01:01:24;;;;;;;;;;;;;;;;;;5029209;28;19966;-67
2022/09/19 01:03:52;;;;;;;;;;;;;;;;;;5029078;28;19905;-66
2022/09/19 01:06:19;;;;;;;;;;;;;;;;;;5030267;28;19905;-66
2022/09/19 01:08:45;;;;;;;;;;;;;;;;;;5029003;28;19912;-67
2022/09/19 01:11:11;;;;;;;;;;;;;;;;;;5030295;28;19928;-66
2022/09/19 01:13:38;;;;;;;;;;;;;;;;;;5030222;28;19913;-67
2022/09/19 01:16:04;;;;;;;;;;;;;;;;;;5030082;28;19916;-67
2022/09/19 01:18:33;;;;;;;;;;;;;;;;;;5030185;28;19909;-67
2022/09/19 01:21:37;;;;;;;;;;;;;;;;;;5030256;28;19905;-67
2022/09/19 01:23:45;;;;;;;;;;;;;;;;;;5029577;28;19917;-67
2022/09/19 01:26:11;;;;;;;;;;;;;;;;;;5033344;28;19992;-69
2022/09/19 01:28:37;;;;;;;;;;;;;;;;;;5032354;28;19909;-67
2022/09/19 01:31:18;;;;;;;;;;;;;;;;;;5032417;28;19949;-67
2022/09/19 01:33:44;;;;;;;;;;;;;;;;;;5033508;28;20712;-68
2022/09/19 01:36:14;;;;;;;;;;;;;;;;;;5033374;28;20003;-66
2022/09/19 01:38:40;;;;;;;;;;;;;;;;;;5033330;28;19913;-66
2022/09/19 01:41:08;;;;;;;;;;;;;;;;;;5033406;28;19905;-65
2022/09/19 01:43:34;;;;;;;;;;;;;;;;;;5033286;28;19905;-67
2022/09/19 01:46:00;;;;;;;;;;;;;;;;;;5033277;28;20314;-68
2022/09/19 01:48:26;;;;;;;;;;;;;;;;;;5032267;28;20329;-66
2022/09/19 01:50:52;;;;;;;;;;;;;;;;;;5031940;28;19948;-66
2022/09/19 01:53:18;;;;;;;;;;;;;;;;;;5033141;28;19909;-66
2022/09/19 01:55:44;;;;;;;;;;;;;;;;;;5033004;28;19916;-67
2022/09/19 01:58:10;;;;;;;;;;;;;;;;;;5031861;28;19913;-67
2022/09/19 02:00:37;;;;;;;;;;;;;;;;;;5033096;28;19909;-67
2022/09/19 02:03:04;;;;;;;;;;;;;;;;;;5032967;28;19905;-67
2022/09/19 02:05:33;;;;;;;;;;;;;;;;;;5032931;28;20336;-67
2022/09/19 02:08:00;;;;;;;;;;;;;;;;;;5032907;28;19912;-68
2022/09/19 02:10:26;;;;;;;;;;;;;;;;;;5032956;28;19909;-68
2022/09/19 02:12:52;;;;;;;;;;;;;;;;;;5031618;28;19913;-67
2022/09/19 02:15:18;;;;;;;;;;;;;;;;;;5031448;28;20269;-67
2022/09/19 02:17:48;;;;;;;;;;;;;;;;;;5032768;28;19909;-67
2022/09/19 02:20:15;;;;;;;;;;;;;;;;;;5032740;28;19912;-66
2022/09/19 02:22:41;;;;;;;;;;;;;;;;;;5032547;28;20352;-67
2022/09/19 02:25:07;;;;;;;;;;;;;;;;;;5032284;28;19928;-65
2022/09/19 02:27:35;;;;;;;;;;;;;;;;;;5032929;28;19905;-66
2022/09/19 02:30:02;;;;;;;;;;;;;;;;;;5032579;28;19907;-66
2022/09/19 02:32:30;;;;;;;;;;;;;;;;;;5032538;28;20345;-67
2022/09/19 02:34:56;;;;;;;;;;;;;;;;;;5032401;28;19905;-66
2022/09/19 02:37:22;;;;;;;;;;;;;;;;;;5031651;28;19909;-67
2022/09/19 02:39:48;;;;;;;;;;;;;;;;;;5032715;28;19921;-68
2022/09/19 02:42:14;;;;;;;;;;;;;;;;;;5032449;28;19911;-68
2022/09/19 02:44:40;;;;;;;;;;;;;;;;;;5031065;28;19928;-70
2022/09/19 02:47:06;;;;;;;;;;;;;;;;;;5032377;28;20353;-69
2022/09/19 02:49:36;;;;;;;;;;;;;;;;;;5032571;28;19912;-68
2022/09/19 02:52:03;;;;;;;;;;;;;;;;;;5032266;28;19912;-69
2022/09/19 02:54:29;;;;;;;;;;;;;;;;;;5031919;28;20288;-66
2022/09/19 02:56:56;;;;;;;;;;;;;;;;;;5032106;28;19909;-69
2022/09/19 02:59:23;;;;;;;;;;;;;;;;;;5032153;28;19909;-69
2022/09/19 03:01:49;;;;;;;;;;;;;;;;;;5030896;28;20072;-68
2022/09/19 03:04:15;;;;;;;;;;;;;;;;;;5032132;28;20432;-67
2022/09/19 03:06:42;;;;;;;;;;;;;;;;;;5032030;28;19905;-69
2022/09/19 03:09:08;;;;;;;;;;;;;;;;;;5031970;28;20357;-68
2022/09/19 03:11:34;;;;;;;;;;;;;;;;;;5032319;28;19961;-68
2022/09/19 03:14:00;;;;;;;;;;;;;;;;;;5030780;28;20355;-67
2022/09/19 03:16:26;;;;;;;;;;;;;;;;;;5030617;28;19913;-68
2022/09/19 03:18:55;;;;;;;;;;;;;;;;;;5031815;28;19916;-69
2022/09/19 03:21:24;;;;;;;;;;;;;;;;;;5031892;28;20409;-69
2022/09/19 03:23:50;;;;;;;;;;;;;;;;;;5031455;28;20017;-69
2022/09/19 03:26:16;;;;;;;;;;;;;;;;;;5030495;28;20310;-69
2022/09/19 03:28:42;;;;;;;;;;;;;;;;;;5031709;28;19928;-71
2022/09/19 03:31:08;;;;;;;;;;;;;;;;;;5031694;28;20276;-68
2022/09/19 03:33:34;;;;;;;;;;;;;;;;;;5031658;28;19905;-68
2022/09/19 03:36:07;;;;;;;;;;;;;;;;;;5031716;28;19909;-69
2022/09/19 03:38:34;;;;;;;;;;;;;;;;;;5031270;28;20261;-69
2022/09/19 03:41:00;;;;;;;;;;;;;;;;;;5031835;28;19954;-68
2022/09/19 03:43:28;;;;;;;;;;;;;;;;;;5031502;28;19905;-66
2022/09/19 03:45:54;;;;;;;;;;;;;;;;;;5031371;28;19905;-66
2022/09/19 03:48:21;;;;;;;;;;;;;;;;;;5031069;28;19906;-69
2022/09/19 03:50:48;;;;;;;;;;;;;;;;;;5031347;28;20344;-69
2022/09/19 03:53:14;;;;;;;;;;;;;;;;;;5029999;28;19912;-68
2022/09/19 03:55:43;;;;;;;;;;;;;;;;;;5031386;28;20344;-69
2022/09/19 03:58:12;;;;;;;;;;;;;;;;;;5031273;28;20264;-67
2022/09/19 04:00:38;;;;;;;;;;;;;;;;;;5031274;28;19991;-66
2022/09/19 04:03:04;;;;;;;;;;;;;;;;;;5031139;28;19950;-67
2022/09/19 04:05:32;;;;;;;;;;;;;;;;;;5031163;28;20003;-69
2022/09/19 04:07:58;;;;;;;;;;;;;;;;;;5031111;28;19920;-67
2022/09/19 04:10:24;;;;;;;;;;;;;;;;;;5030801;28;19905;-68
2022/09/19 04:12:50;;;;;;;;;;;;;;;;;;5031056;28;20027;-67
2022/09/19 04:15:16;;;;;;;;;;;;;;;;;;5029765;28;20421;-68
2022/09/19 04:17:43;;;;;;;;;;;;;;;;;;5030956;28;19916;-68
2022/09/19 04:20:10;;;;;;;;;;;;;;;;;;5030697;28;19984;-68
2022/09/19 04:22:37;;;;;;;;;;;;;;;;;;5030895;28;19909;-68
2022/09/19 04:25:03;;;;;;;;;;;;;;;;;;5030411;28;20007;-67
2022/09/19 04:27:30;;;;;;;;;;;;;;;;;;5030718;28;20007;-67
2022/09/19 04:29:57;;;;;;;;;;;;;;;;;;5030816;28;20330;-68
2022/09/19 04:32:23;;;;;;;;;;;;;;;;;;5030781;28;19905;-69
2022/09/19 04:34:49;;;;;;;;;;;;;;;;;;5030743;28;19905;-69
2022/09/19 04:37:15;;;;;;;;;;;;;;;;;;5030626;28;19955;-68
2022/09/19 04:39:41;;;;;;;;;;;9.90;99.90;;;;;;5030638;28;19905;-69
2022/09/19 04:42:08;;;;;;;;;;;10.80;99.90;;;;;;5030395;28;19916;-69
2022/09/19 04:44:33;;;;;;;;;;;10.80;99.90;;;;;;5030613;28;19988;-68
2022/09/19 04:46:59;;;;;;;;;;;10.80;99.90;;;;;;5029257;28;20400;-70
2022/09/19 04:49:35;;;;;;;;;;;10.90;99.90;;;;;;5030466;28;19905;-68
2022/09/19 04:52:01;;;;;;;;;;;11.00;99.90;;;;;;5030521;28;19958;-70
2022/09/19 04:54:27;;;;;;;;;;;;;;;;;;5030163;28;19905;-68
2022/09/19 04:56:53;;;;;;;;;;;11.10;99.90;;;;;;5030431;28;20288;-68
2022/09/19 04:59:18;;;;;;;;;;;11.10;99.90;;;;;;5030935;28;19905;-70
2022/09/19 05:01:44;;;;;;;;;;;11.10;99.90;;;;;;5034018;28;20406;-69
2022/09/19 05:04:10;;;;;;;;;;;11.10;99.90;;;;;;5033936;28;19906;-68
2022/09/19 05:06:36;;;;;;;;;;;11.00;99.90;;;;;;5032543;28;19908;-71
2022/09/19 05:09:02;;;;;;;;;;;11.00;99.90;;;;;;5049129;27;19909;-71
2022/09/19 05:11:28;;;;;;;;;;;11.10;99.90;;;;;;5053363;28;19973;-69
2022/09/19 05:13:54;;;;;;;;;;;11.10;99.90;;;;;;5052105;27;19905;-68
2022/09/19 05:16:20;;;;;;;;;;;11.20;99.90;;;;;;5052878;28;19920;-70
2022/09/19 05:18:45;;;;;;;;;;;11.30;99.90;;;;;;5053301;28;19996;-69
2022/09/19 05:21:12;;;;;;;;;;;11.20;99.90;;;;;;5052736;28;20343;-69
2022/09/19 05:23:38;;;;;;;;;;;11.30;99.90;;;;;;5051547;27;19966;-68
2022/09/19 05:26:05;;;;;;;;;;;11.30;99.90;;;;;;5052838;27;20378;-68
2022/09/19 05:28:30;;;;;;;;;;;11.30;99.90;;;;;;5052842;27;19905;-69
2022/09/19 05:30:56;;;;;;;;;;;11.30;99.90;;;;;;5052509;28;19956;-73
2022/09/19 05:33:28;;;;;;;;;;;11.20;99.90;;;;;;5052740;28;20374;-71
2022/09/19 05:35:55;;;;;;;;;;;11.20;99.90;;;;;;5051310;27;19916;-72
2022/09/19 05:38:24;;;;;;;;;;;11.20;99.90;;;;;;5052790;27;19904;-71
2022/09/19 05:40:54;;;;;;;;;;;11.30;99.90;;;;;;5052593;27;19905;-71
2022/09/19 05:43:20;;;;;;;;;;;;;;;;;;5052765;27;19915;-73
2022/09/19 05:45:46;;;;;;;;;;;;;;;;;;5050751;27;19905;-72
2022/09/19 05:48:12;;;;;;;;;;;;;;;;;;5050150;27;19957;-68
2022/09/19 05:50:38;;;;;;;;;;;;;;;;;;5052899;28;19909;-71
2022/09/19 05:55:49;;;;;;;;;;;11.30;99.90;;;;;;5052250;28;19957;-68
2022/09/19 05:58:17;;;;;;;;;;;11.60;99.90;;;;;;5051419;28;19908;-68
2022/09/19 06:00:43;;;;;;;;;;;11.70;99.90;;;;;;5051360;27;19905;-71
2022/09/19 06:03:11;;;;;;;;;;;11.60;99.90;;;;;;5053040;28;20292;-69
2022/09/19 06:05:37;;;;;;;;;;;11.50;99.90;;;;;;5051096;27;20294;-69
2022/09/19 06:08:04;;;;;;;;;;;11.50;99.90;;;;;;5052552;28;19911;-70
2022/09/19 06:10:32;;;;;;;;;;;11.50;99.90;;;;;;5051952;28;19952;-69
2022/09/19 06:12:58;;;;;;;;;;;11.50;99.90;;;;;;5050543;27;20268;-67
2022/09/19 06:15:24;;;;;;;;;;;11.60;99.90;;;;;;5052311;27;19913;-70
2022/09/19 06:17:53;;;;;;;;;;;11.60;99.90;;;;;;5050925;28;19904;-69
2022/09/19 06:20:19;;;;;;;;;;;11.50;99.90;;;;;;5052408;28;19905;-69
2022/09/19 06:22:45;;;;;;;;;;;11.50;99.90;;;;;;5052425;28;19928;-67
2022/09/19 06:25:11;;;;;;;;;;;11.50;99.90;;;;;;5052288;27;20368;-67
2022/09/19 06:27:37;;;;;;;;;;;11.50;99.90;;;;;;5051684;27;19913;-71
2022/09/19 06:30:04;;;;;;;;;;;11.60;99.90;;;;;;5050964;27;19904;-70
2022/09/19 06:32:29;;;;;;;;;;;11.60;99.90;;;;;;5052268;28;19936;-71
2022/09/19 06:34:55;;;;;;;;;;;;;;;;;;5052163;28;19940;-69
2022/09/19 06:37:21;;;;;;;;;;;;;;;;;;5052067;28;20356;-72
2022/09/19 06:39:47;;;;;;;;;;;;;;;;;;5050494;27;19992;-69
2022/09/19 06:42:13;;;;;;;;;;;11.60;99.90;;;;;;5051804;27;20372;-68
2022/09/19 06:44:39;;;;;;;;;;;11.80;99.90;;;;;;5050560;27;19954;-69
2022/09/19 06:47:05;;;;;;;;;;;12.00;99.90;;;;;;5051958;28;19905;-69
2022/09/19 06:49:32;;;;;;;;;;;12.00;99.90;;;;;;5051884;28;19909;-69
2022/09/19 06:51:57;;;;;;;;;;;12.00;99.90;;;;;;5051331;27;19915;-69
2022/09/19 06:54:23;;;;;;;;;;;12.10;99.90;;;;;;5051816;28;19904;-68
2022/09/19 06:56:49;;;;;;;;;;;12.10;99.90;;;;;;5051767;28;19917;-69
2022/09/19 06:59:17;;;;;;;;;;;12.10;99.90;;;;;;5050420;28;20268;-69
2022/09/19 07:01:45;;;;;;;;;;;;;;;;;;5050196;27;19943;-69
2022/09/19 07:04:11;;;;;;;;;;;;;;;;;;5051727;28;20282;-70
2022/09/19 07:06:37;;;;;;;;;;;;;;;;;;5051666;28;19905;-69
2022/09/19 07:09:03;;;;;;;;;;;;;;;;;;5050217;28;19999;-69
2022/09/19 07:11:29;;;;;;;;;;;;;;;;;;5051100;28;20005;-69
2022/09/19 07:13:55;;;;;;;;;;;;;;;;;;5050759;27;20375;-67
2022/09/19 07:16:21;;;;;;;;;;;;;;;;;;5051373;28;20436;-66
2022/09/19 07:18:47;;;;;;;;;;;;;;;;;;5049924;28;19995;-69
2022/09/19 07:21:13;;;;;;;;;;;;;;;;;;5051387;28;19911;-67
2022/09/19 07:23:39;;;;;;;;;;;;;;;;;;5051194;28;19923;-67
2022/09/19 07:26:04;;;;;;;;;;;;;;;;;;5050247;28;19904;-67
2022/09/19 07:28:30;;;;;;;;;;;;;;;;;;5049888;28;19928;-67
2022/09/19 07:30:56;;;;;;;;;;;;;;;;;;5051541;28;19909;-70
2022/09/19 07:33:23;;;;;;;;;;;;;;;;;;5051571;28;19956;-67
2022/09/19 07:35:51;;;;;;;;;;;;;;;;;;5051358;28;19919;-67
2022/09/19 07:38:17;;;;;;;;;;;;;;;;;;5051386;28;19957;-67
2022/09/19 07:40:43;;;;;;;;;;;;;;;;;;5050108;28;20268;-67
2022/09/19 07:43:09;;;;;;;;;;;;;;;;;;5050948;28;19909;-67
2022/09/19 07:45:35;;;;;;;;;;;;;;;;;;5051094;28;20352;-67
2022/09/19 07:48:01;;;;;;;;;;;;;;;;;;5049679;28;19995;-68
2022/09/19 07:50:27;;;;;;;;;;;;;;;;;;5049772;28;19911;-67
2022/09/19 07:52:53;;;;;;;;;;;;;;;;;;5051206;28;19912;-68
2022/09/19 07:55:19;;;;;;;;;;;;;;;;;;5049759;27;19905;-68
2022/09/19 07:57:45;;;;;;;;;;;;;;;;;;5049941;27;19964;-69
2022/09/19 08:00:11;;;;;;;;;;;;;;;;;;5035215;27;20363;-68
2022/09/19 08:02:37;;;;;;;;;;;;;;;;;;5047844;28;20305;-68
2022/09/19 08:05:04;;;;;;;;;;;;;;;;;;5051840;27;20012;-70
2022/09/19 08:07:29;;;;;;;;;;;;;;;;;;5048685;28;19953;-71
2022/09/19 08:09:55;;;;;;;;;;;;;;;;;;5049084;28;19905;-71
2022/09/19 08:12:22;;;;;;;;;;;;;;;;;;5049214;28;19911;-69
2022/09/19 08:14:48;;;;;;;;;;;;;;;;;;5050374;28;20004;-68
2022/09/19 08:17:14;;;;;;;;;;;;;;;;;;5049886;28;19967;-68
2022/09/19 08:19:40;;;;;;;;;;;;;;;;;;5050823;28;19951;-67
2022/09/19 08:22:06;;;;;;;;;;;;;;;;;;5049201;28;19904;-68
2022/09/19 08:24:32;;;;;;;;;;;;;;;;;;5048873;28;19962;-69
2022/09/19 08:26:58;;;;;;;;;;;;;;;;;;5050072;28;20345;-67
2022/09/19 08:29:26;;;;;;;;;;;;;;;;;;5049092;28;19904;-68
2022/09/19 08:31:52;;;;;;;;;;;;;;;;;;5050440;28;19991;-71
2022/09/19 08:34:18;;;;;;;;;;;;;;;;;;5049101;28;20348;-68
2022/09/19 08:36:44;;;;;;;;;;;;;;;;;;5050122;28;19952;-69
2022/09/19 08:39:10;;;;;;;;;;;;;;;;;;5050303;28;19909;-71
2022/09/19 08:41:36;;;;;;;;;;;;;;;;;;5048398;28;19916;-69
2022/09/19 08:44:03;;;;;;;;;;;;;;;;;;5050486;28;19905;-68
2022/09/19 08:46:29;;;;;;;;;;;;;;;;;;5050396;28;19905;-67
2022/09/19 08:48:55;;;;;;;;;;;;;;;;;;5048644;28;19905;-67
2022/09/19 08:51:21;;;;;;;;;;;;;;;;;;5049452;28;19916;-69
2022/09/19 08:53:47;;;;;;;;;;;;;;;;;;5048846;28;19905;-70
2022/09/19 08:56:13;;;;;;;;;;;;;;;;;;5048127;28;19920;-70
2022/09/19 08:58:39;;;;;;;;;;;;;;;;;;5049639;28;19905;-68
2022/09/19 09:01:07;;;;;;;;;;;;;;;;;;5050199;28;19905;-67
2022/09/19 09:03:33;;;;;;;;;;;;;;;;;;5050239;28;19905;-69
2022/09/19 09:05:59;;;;;;;;;;;;;;;;;;5048787;28;19912;-66
2022/09/19 09:08:25;;;;;;;;;;;;;;;;;;5049782;28;20304;-67
2022/09/19 09:10:51;;;;;;;;;;;;;;;;;;5048697;28;19954;-67
2022/09/19 09:13:36;;;;;;;;;;;13.50;99.90;;;;;;5050116;28;19909;-68
2022/09/19 09:16:09;;;;;;;;;;;12.70;99.90;;;;;;5049640;28;20326;-69
2022/09/19 09:18:35;;;;;;;;;;;;;;;;;;5049970;28;19905;-68
2022/09/19 09:21:03;;;;;;;;;;;;;;;;;;5049896;28;20265;-68
2022/09/19 09:23:29;;;;;;;;;;;;;;;;;;5049655;28;19977;-67
2022/09/19 09:25:55;;;;;;;;;;;;;;;;;;5048615;28;20356;-67
2022/09/19 09:28:25;;;;;;;;;;;;;;;;;;5048554;28;19905;-68
2022/09/19 09:30:51;;;;;;;;;;;;;;;;;;5049866;28;19949;-67
2022/09/19 09:33:21;;;;;;;;;;;;;;;;;;5049854;28;19908;-67
2022/09/19 09:35:47;;;;;;;;;;;;;;;;;;5048365;27;20303;-68
2022/09/19 09:38:13;;;;;;;;;;;;;;;;;;5029240;27;20318;-69
2022/09/19 09:43:23;;;;;;;;;;;;;;;;;;5029503;28;20399;-68
2022/09/19 09:45:49;;;;;;;;;;;;;;;;;;5029417;28;19916;-72
2022/09/19 09:48:15;;;;;;;;;;;;;;;;;;5030828;27;19905;-71
2022/09/19 09:50:43;;;;;;;;;;;;;;;;;;5032976;28;19976;-70
2022/09/19 09:53:09;;;;;;;;;;;;;;;;;;5032961;28;20392;-72
2022/09/19 09:58:19;;;;;;;;;;;;;;;;;;5032671;28;19912;-71
2022/09/19 10:03:38;;;;;;;;;;;;;;;;;;5032560;28;20277;-71
2022/09/19 10:06:05;;;;;;;;;;;;;;;;;;5031377;28;20302;-70
2022/09/19 10:08:31;;;;;;;;;;;;;;;;;;5031461;28;19916;-68
2022/09/19 10:10:57;;;;;;;;;;;;;;;;;;5031345;28;20004;-71
2022/09/19 10:13:26;;;;;;;;;;;;;;;;;;5032363;28;20001;-71
2022/09/19 10:15:54;;;;;;;;;;;12.70;99.90;;;;;;5032333;28;20334;-71
2022/09/19 10:18:22;;;;;;;;;;;12.60;99.90;;;;;;5032572;28;19960;-70
2022/09/19 10:20:51;;;;;;;;;;;12.50;99.90;;;;;;5032528;28;20395;-71
2022/09/19 10:23:29;;;;;;;;;;;12.50;99.90;;;;;;5030854;28;19924;-68
2022/09/19 10:26:03;;;;;;;;;;;12.50;99.90;;;;;;5032231;28;19911;-69
2022/09/19 10:28:33;;;;;;;;;;;12.50;99.90;;;;;;5032423;28;19905;-70
2022/09/19 10:31:00;;;;;;;;;;;12.40;99.90;;;;;;5032355;28;20001;-68
2022/09/19 10:33:26;;;;;;;;;;;12.40;99.90;;;;;;5032307;28;19905;-67
2022/09/19 10:35:54;;;;;;;;;;;12.20;99.90;;;;;;5030873;28;20310;-71
2022/09/19 10:38:21;;;;;;;;;;;12.30;99.90;;;;;;5030816;28;19911;-69
2022/09/19 10:40:58;;;;;;;;;;;12.30;99.90;;;;;;5030976;28;19911;-72
2022/09/19 10:43:31;;;;;;;;;;;12.40;99.90;;;;;;5030961;28;20261;-68
2022/09/19 10:45:57;;;;;;;;;;;12.50;99.90;;;;;;5031889;28;20421;-69
2022/09/19 10:48:23;;;;;;;;;;;;;;;;;;5032473;28;20325;-68
2022/09/19 10:50:49;;;;;;;;;;;;;;;;;;5032359;28;19909;-70
2022/09/19 10:53:15;;;;;;;;;;;;;;;;;;5032002;28;19952;-71
2022/09/19 10:55:41;;;;;;;;;;;;;;;;;;5031878;28;20004;-70
2022/09/19 10:58:07;;;;;;;;;;;;;;;;;;5029978;28;19965;-70
2022/09/19 11:00:34;;;;;;;;;;;;;;;;;;5031952;28;19913;-72
2022/09/19 11:03:00;;;;;;;;;;;;;;;;;;5031483;27;19905;-71
2022/09/19 11:05:26;;;;;;;;;;;;;;;;;;5051920;28;19912;-73
2022/09/19 11:07:56;;;;;;;;;;;;;;;;;;5051841;28;19904;-70
2022/09/19 11:10:22;;;;;;;;;;;;;;;;;;5051694;28;19905;-71
2022/09/19 11:12:48;;;;;;;;;;;;;;;;;;5050219;27;19932;-73
2022/09/19 11:15:16;;;;;;;;;;;;;;;;;;5052010;28;19905;-72
2022/09/19 11:17:42;;;;;;;;;;;;;;;;;;5050430;27;19905;-72
2022/09/19 11:20:08;;;;;;;;;;;;;;;;;;5051682;28;19915;-71
2022/09/19 11:22:34;;;;;;;;;;;;;;;;;;5051626;28;19905;-73
2022/09/19 11:25:00;;;;;;;;;;;;;;;;;;5049997;27;19920;-72
2022/09/19 11:27:26;;;;;;;;;;;;;;;;;;5051652;28;19928;-72
2022/09/19 11:29:53;;;;;;;;;;;;;;;;;;5050253;28;19912;-73
2022/09/19 11:32:19;;;;;;;;;;;;;;;;;;5051445;28;19904;-73
2022/09/19 11:34:46;;;;;;;;;;;;;;;;;;5050227;28;20372;-72
2022/09/19 11:37:12;;;;;;;;;;;;;;;;;;5050117;28;19961;-74
2022/09/19 11:39:38;;;;;;;;;;;;;;;;;;5050097;28;19909;-71
2022/09/19 11:42:04;;;;;;;;;;;;;;;;;;5049777;28;19905;-72
2022/09/19 11:44:32;;;;;;;;;;;12.70;99.90;;;;;;5051640;28;19911;-72
2022/09/19 11:47:18;;;;;;;;;;;13.50;99.90;;;;;;5051289;28;19909;-71
2022/09/19 11:50:03;;;;;;;;;;;13.50;99.90;;;;;;5051202;28;19908;-72
2022/09/19 11:52:34;;;;;;;;;;;13.60;99.90;;;;;;5049801;28;20267;-71
2022/09/19 11:55:16;;;;;;;;;;;13.60;99.90;;;;;;5049798;27;20245;-72
2022/09/19 11:58:03;;;;;;;;;;;13.60;99.90;;;;;;5051382;28;20000;-74
2022/09/19 12:00:33;;;;;;;;;;;13.50;99.90;;;;;;5050951;28;19905;-75
2022/09/19 12:03:18;;;;;;;;;;;13.50;99.90;;;;;;5051347;28;19905;-71
2022/09/19 12:05:52;;;;;;;;;;;13.60;99.90;;;;;;5049803;28;19912;-74
2022/09/19 12:08:28;;;;;;;;;;;13.50;99.90;;;;;;5049239;28;19995;-72
2022/09/19 12:11:12;;;;;;;;;;;13.60;99.90;;;;;;5050246;28;19905;-72
2022/09/19 12:13:42;;;;;;;;;;;;;;;;;;5049359;27;19969;-71
2022/09/19 12:16:10;;;;;;;;;;;;;;;;;;5049157;27;19923;-71
2022/09/19 12:18:36;;;;;;;;;;;;;;;;;;5049426;28;19904;-72
2022/09/19 12:21:02;;;;;;;;;;;;;;;;;;5050755;28;20003;-73
2022/09/19 12:26:13;;;;;;;;;;;;;;;;;;5050445;28;19928;-70
2022/09/19 12:28:40;;;;;;;;;;;;;;;;;;5049487;28;19912;-70
2022/09/19 12:31:06;;;;;;;;;;;;;;;;;;5049415;27;20329;-72
2022/09/19 12:33:32;;;;;;;;;;;;;;;;;;5049319;27;19940;-71
2022/09/19 12:35:58;;;;;;;;;;;;;;;;;;5049306;27;19916;-72
2022/09/19 12:38:24;;;;;;;;;;;;;;;;;;5049322;27;19940;-71
2022/09/19 12:40:52;;;;;;;;;;;;;;;;;;5050706;28;19905;-71
2022/09/19 12:43:18;;;;;;;;;;;;;;;;;;5050467;28;20275;-73
2022/09/19 12:45:44;;;;;;;;;;;;;;;;;;5049320;27;19905;-72
2022/09/19 12:48:12;;;;;;;;;;;;;;;;;;5049160;28;20268;-71
2022/09/19 12:50:40;;;;;;;;;;;;;;;;;;5049076;28;19909;-73
2022/09/19 12:53:05;;;;;;;;;;;;;;;;;;5049066;28;20352;-72
2022/09/19 12:55:32;;;;;;;;;;;;;;;;;;5050117;28;19911;-71
2022/09/19 12:57:59;;;;;;;;;;;;;;;;;;5048824;28;20032;-70
2022/09/19 13:00:25;;;;;;;;;;;;;;;;;;5048968;27;19944;-72
2022/09/19 13:02:51;;;;;;;;;;;;;;;;;;5048735;27;20339;-71
2022/09/19 13:05:22;;;;;;;;;;;;;;;;;;5050189;28;19905;-71
2022/09/19 13:07:47;;;;;;;;;;;;;;;;;;5050010;28;19950;-70
2022/09/19 13:10:13;;;;;;;;;;;;;;;;;;5048841;28;19908;-72
2022/09/19 13:12:39;;;;;;;;;;;;;;;;;;5048855;27;19911;-71
2022/09/19 13:15:05;;;;;;;;;;;;;;;;;;5048774;27;19973;-71
2022/09/19 13:25:48;;;;;;;;;;;;;;;;;;5053271;28;19911;-71
2022/09/19 13:28:14;;;;;;;;;;;;;;;;;;5052196;27;19911;-71
2022/09/19 13:30:40;;;;;;;;;;;;;;;;;;5052185;27;19905;-74
2022/09/19 13:33:07;;;;;;;;;;;;;;;;;;5052374;28;19927;-72
2022/09/19 13:35:33;;;;;;;;;;;;;;;;;;5053333;28;21808;-73
2022/09/19 13:37:59;;;;;;;;;;;;;;;;;;5050973;27;19948;-73
2022/09/19 13:40:25;;;;;;;;;;;;;;;;;;5051955;28;20475;-71
2022/09/19 13:42:51;;;;;;;;;;;;;;;;;;5052239;28;19912;-72
2022/09/19 13:45:17;;;;;;;;;;;;;;;;;;5053246;28;19990;-71
2022/09/19 13:47:43;;;;;;;;;;;;;;;;;;5052981;28;20004;-74
2022/09/19 13:50:09;;;;;;;;;;;;;;;;;;5053166;28;19905;-74
2022/09/19 13:52:35;;;;;;;;;;;;;;;;;;5052818;28;19905;-73
2022/09/19 13:55:02;;;;;;;;;;;;;;;;;;5051853;28;20107;-75
2022/09/19 13:57:30;;;;;;;;;;;13.70;99.90;;;;;;5053054;28;19917;-75
2022/09/19 14:00:01;;;;;;;;;;;13.70;99.90;;;;;;5052980;28;19940;-74
2022/09/19 14:02:47;;;;;;;;;;;13.70;99.90;;;;;;5053036;28;19911;-71
2022/09/19 14:05:16;;;;;;;;;;;13.60;99.90;;;;;;5051232;27;19904;-74
2022/09/19 14:07:57;;;;;;;;;;;13.60;99.90;;;;;;5050693;27;19912;-74
2022/09/19 14:10:32;;;;;;;;;;;13.60;99.90;;;;;;5050588;28;19904;-71
2022/09/19 14:12:59;;;;;;;;;;;13.60;99.90;;;;;;5051152;28;20409;-70
2022/09/19 14:15:28;;;;;;;;;;;13.60;99.90;;;;;;5051089;28;19909;-72
2022/09/19 14:18:12;;;;;;;;;;;13.70;99.90;;;;;;5052486;28;20264;-72
2022/09/19 14:20:53;;;;;;;;;;;13.70;99.90;;;;;;5052767;28;19908;-71
2022/09/19 14:23:21;;;;;;;;;;;13.60;99.90;;;;;;5050784;28;19960;-71
2022/09/19 14:25:59;;;;;;;;;;;13.60;99.90;;;;;;5052523;28;19905;-71
2022/09/19 14:28:45;;;;;;;;;;;13.60;99.90;;;;;;5052237;28;19905;-74
2022/09/19 14:31:20;;;;;;;;;;;13.60;99.90;;;;;;5011065;28;19916;-71
2022/09/19 14:34:16;;;;;;;;;;;13.50;99.90;;;;;;5051488;28;19904;-74
2022/09/19 14:36:42;;;;;;;;;;;13.50;99.90;;;;;;5052131;28;19958;-70
2022/09/19 14:39:42;;;;;;;;;;;13.50;99.90;;;;;;5052054;28;20352;-69
2022/09/19 14:42:24;;;;;;;;;;;13.50;99.90;;;;;;5007937;28;19995;-71
2022/09/19 14:44:58;;;;;;;;;;;13.50;99.90;;;;;;5050905;28;20019;-70
2022/09/19 14:47:35;;;;;;;;;;;13.50;99.90;;;;;;5050575;28;20254;-71
2022/09/19 14:50:04;;;;;;;;;;;13.50;99.90;;;;;;5050288;28;20306;-70
2022/09/19 14:52:30;;;;;;;;;;;13.50;99.90;;;;;;5051205;28;20380;-71
2022/09/19 14:55:00;;;;;;;;;;;13.50;99.90;;;;;;5051389;28;19904;-72
2022/09/19 14:57:25;;;;;;;;;;;13.50;99.90;;;;;;5051851;28;19916;-69
2022/09/19 14:59:52;;;;;;;;;;;13.50;99.90;;;;;;5051809;28;20367;-69
2022/09/19 15:02:21;;;;;;;;;;;13.60;99.90;;;;;;5051732;28;19909;-74
2022/09/19 15:04:49;;;;;;;;;;;13.70;99.90;;;;;;5051563;28;19905;-72
2022/09/19 15:07:15;;;;;;;;;;;;;;;;;;5051690;28;19952;-70
2022/09/19 15:09:41;;;;;;;;;;;;;;;;;;5051753;28;20286;-70
2022/09/19 15:12:08;;;;;;;;;;;;;;;;;;5051773;28;19904;-69
2022/09/19 15:14:34;;;;;;;;;;;;;;;;;;5051768;28;19909;-70
2022/09/19 15:17:00;;;;;;;;;;;;;;;;;;5051574;28;19999;-72
2022/09/19 15:19:26;;;;;;;;;;;;;;;;;;5051487;28;20001;-73
2022/09/19 15:21:57;;;;;;;;;;;;;;;;;;5051260;28;19912;-75
2022/09/19 15:24:23;;;;;;;;;;;;;;;;;;5051687;28;20318;-74
2022/09/19 15:26:51;;;;;;;;;;;;;;;;;;5050237;28;19912;-74
2022/09/19 15:29:17;;;;;;;;;;;;;;;;;;5049966;28;20421;-71
2022/09/19 15:31:45;;;;;;;;;;;;;;;;;;5051238;28;19909;-72
2022/09/19 15:34:13;;;;;;;;;;;;;;;;;;5049792;28;20011;-74
2022/09/19 15:36:39;;;;;;;;;;;;;;;;;;5051306;28;19916;-71
2022/09/19 15:39:05;;;;;;;;;;;;;;;;;;5049811;28;20322;-72
2022/09/19 15:41:31;;;;;;;;;;;;;;;;;;5049512;28;20250;-74
2022/09/19 15:43:57;;;;;;;;;;;;;;;;;;5049584;28;19904;-72
2022/09/19 15:46:23;;;;;;;;;;;;;;;;;;5051150;28;19991;-73
2022/09/19 15:48:49;;;;;;;;;;;;;;;;;;5051017;28;20348;-75
2022/09/19 15:51:16;;;;;;;;;;;;;;;;;;5049627;28;19909;-71
2022/09/19 15:53:42;;;;;;;;;;;;;;;;;;5049749;28;19904;-74
2022/09/19 15:56:08;;;;;;;;;;;;;;;;;;5050747;28;20284;-72
2022/09/19 15:58:34;;;;;;;;;;;;;;;;;;5049248;28;19905;-75
2022/09/19 16:00:59;;;;;;;;;;;;;;;;;;5050672;28;19959;-75
2022/09/19 16:03:25;;;;;;;;;;;;;;;;;;5050849;28;20355;-75
2022/09/19 16:05:51;;;;;;;;;;;;;;;;;;5049602;28;19909;-72
2022/09/19 16:11:02;;;;;;;;;;;;;;;;;;5050452;28;19933;-74
2022/09/19 16:13:28;;;;;;;;;;;;;;;;;;5051051;28;20345;-72
2022/09/19 16:15:56;;;;;;;;;;;;;;;;;;5050648;28;20353;-76
2022/09/19 16:18:22;;;;;;;;;;;13.70;99.90;;;;;;5049403;28;19909;-76
2022/09/19 16:20:55;;;;;;;;;;;13.70;99.90;;;;;;5050513;28;20372;-73
2022/09/19 16:23:22;;;;;;;;;;;13.60;99.90;;;;;;5048230;27;20269;-74
2022/09/19 16:25:48;;;;;;;;;;;;;;;;;;5032728;28;19913;-75
2022/09/19 16:28:13;;;;;;;;;;;;;;;;;;5050592;28;19912;-73